createdAt,value
2022-10-31T00:00:10.031Z,43.10
2022-10-31T00:02:37.248Z,40.87
2022-10-31T00:05:04.427Z,56.97
2022-10-31T00:07:31.539Z,56.47
2022-10-31T00:09:58.938Z,42.87
2022-10-31T00:12:26.007Z,66.63
2022-10-31T00:14:53.136Z,41.37
2022-10-31T00:17:20.302Z,81.27
2022-10-31T00:19:47.411Z,46.20
2022-10-31T00:22:14.462Z,40.77
2022-10-31T00:24:41.528Z,36.97
2022-10-31T00:27:08.651Z,40.90
2022-10-31T00:29:35.789Z,29.20
2022-10-31T00:32:02.927Z,26.80
2022-10-31T00:34:29.983Z,43.47
2022-10-31T00:36:57.037Z,36.67
2022-10-31T00:39:24.153Z,62.37
2022-10-31T00:41:51.187Z,63.47
2022-10-31T00:44:18.251Z,67.07
2022-10-31T00:46:45.278Z,84.17
2022-10-31T00:49:13.267Z,45.90
2022-10-31T00:51:40.333Z,40.73
2022-10-31T00:54:07.449Z,66.73
2022-10-31T00:56:34.525Z,51.57
2022-10-31T00:59:01.596Z,54.27
2022-10-31T01:01:28.764Z,54.20
2022-10-31T01:03:55.902Z,44.93
2022-10-31T01:06:22.951Z,64.00
2022-10-31T01:08:50.035Z,43.13
2022-10-31T01:11:23.985Z,62.30
2022-10-31T01:13:52.394Z,48.33
2022-10-31T01:16:20.311Z,82.83
2022-10-31T01:18:47.505Z,18.03
2022-10-31T01:21:18.967Z,44.17
2022-10-31T01:23:46.666Z,103.47
2022-10-31T01:26:15.142Z,97.30
2022-10-31T01:28:47.592Z,86.00
2022-10-31T01:31:14.978Z,75.97
2022-10-31T01:33:42.402Z,153.57
2022-10-31T01:36:13.739Z,58.60
2022-10-31T01:38:40.970Z,95.93
2022-10-31T01:41:08.424Z,102.90
2022-10-31T01:43:53.627Z,127.43
2022-10-31T01:46:23.556Z,176.63
2022-10-31T01:48:51.401Z,201.77
2022-10-31T01:51:19.905Z,295.70
2022-10-31T01:53:47.402Z,278.17
2022-10-31T01:56:15.546Z,262.57
2022-10-31T01:58:43.611Z,286.67
2022-10-31T02:01:11.158Z,182.43
2022-10-31T02:03:38.335Z,236.23
2022-10-31T02:06:09.505Z,239.50
2022-10-31T02:08:36.942Z,172.43
2022-10-31T02:11:04.064Z,179.43
2022-10-31T02:13:31.441Z,233.30
2022-10-31T02:16:00.240Z,133.07
2022-10-31T02:18:28.335Z,93.40
2022-10-31T02:20:55.378Z,186.33
2022-10-31T02:23:45.189Z,125.60
2022-10-31T02:26:30.057Z,179.30
2022-10-31T02:29:03.069Z,79.70
2022-10-31T02:31:52.587Z,102.63
2022-10-31T02:34:21.650Z,91.67
2022-10-31T02:36:51.843Z,122.33
2022-10-31T02:39:36.468Z,74.20
2022-10-31T02:42:09.429Z,87.43
2022-10-31T02:44:41.494Z,80.07
2022-10-31T02:47:15.383Z,54.57
2022-10-31T02:49:47.614Z,71.53
2022-10-31T02:52:22.215Z,81.20
2022-10-31T02:54:49.979Z,58.13
2022-10-31T02:57:18.935Z,65.07
2022-10-31T02:59:48.092Z,14.83
2022-10-31T03:02:33.520Z,20.67
2022-10-31T03:05:19.591Z,17.73
2022-10-31T03:07:49.811Z,29.53
2022-10-31T03:10:28.882Z,28.67
2022-10-31T03:13:16.238Z,24.00
2022-10-31T03:15:49.402Z,24.77
2022-10-31T03:18:19.553Z,29.87
2022-10-31T03:20:49.894Z,17.77
2022-10-31T03:23:18.121Z,16.43
2022-10-31T03:25:45.666Z,26.87
2022-10-31T03:28:14.004Z,31.77
2022-10-31T03:30:42.946Z,29.03
2022-10-31T03:33:12.864Z,20.53
2022-10-31T03:35:41.604Z,14.63
2022-10-31T03:38:08.930Z,18.03
2022-10-31T03:40:37.436Z,41.40
2022-10-31T03:43:08.615Z,17.13
2022-10-31T03:45:37.729Z,27.80
2022-10-31T03:48:04.977Z,19.33
2022-10-31T03:50:37.112Z,47.90
2022-10-31T03:53:07.866Z,35.00
2022-10-31T03:55:40.134Z,60.67
2022-10-31T03:58:12.680Z,156.30
2022-10-31T04:00:42.375Z,16.57
2022-10-31T04:03:12.694Z,23.50
2022-10-31T04:05:40.430Z,18.63
2022-10-31T04:08:10.310Z,36.63
2022-10-31T04:10:38.980Z,115.07
2022-10-31T04:13:11.426Z,17.10
2022-10-31T04:15:39.524Z,19.03
2022-10-31T04:18:07.307Z,15.07
2022-10-31T04:20:38.890Z,10.23
2022-10-31T04:23:08.848Z,12.67
2022-10-31T04:25:38.119Z,34.03
2022-10-31T04:28:05.496Z,52.67
2022-10-31T04:30:32.683Z,25.80
2022-10-31T04:32:59.972Z,80.43
2022-10-31T04:35:27.102Z,41.93
2022-10-31T04:37:54.167Z,21.20
2022-10-31T04:40:21.281Z,44.17
2022-10-31T04:42:48.345Z,57.07
2022-10-31T04:45:18.481Z,120.50
2022-10-31T04:47:48.195Z,97.80
2022-10-31T04:50:15.460Z,99.80
2022-10-31T04:52:43.222Z,56.00
2022-10-31T04:55:11.028Z,36.33
2022-10-31T04:57:56.354Z,24.13
2022-10-31T05:00:24.190Z,12.77
2022-10-31T05:02:52.320Z,23.73
2022-10-31T05:05:20.323Z,33.63
2022-10-31T05:07:47.879Z,50.53
2022-10-31T05:10:17.168Z,26.53
2022-10-31T05:12:51.921Z,34.83
2022-10-31T05:15:19.988Z,57.20
2022-10-31T05:17:47.371Z,42.37
2022-10-31T05:20:15.133Z,93.73
2022-10-31T05:22:44.416Z,240.10
2022-10-31T05:25:11.980Z,147.30
2022-10-31T05:27:42.385Z,266.43
2022-10-31T05:30:09.961Z,214.53
2022-10-31T05:32:47.715Z,180.67
2022-10-31T05:35:16.825Z,156.70
2022-10-31T05:37:43.972Z,174.27
2022-10-31T05:40:11.962Z,202.53
2022-10-31T05:42:42.058Z,84.17
2022-10-31T05:45:10.209Z,230.27
2022-10-31T05:47:37.354Z,133.13
2022-10-31T05:50:05.076Z,183.17
2022-10-31T05:52:32.166Z,183.13
2022-10-31T05:54:59.244Z,129.07
2022-10-31T05:57:26.451Z,121.37
2022-10-31T05:59:56.420Z,205.10
2022-10-31T06:02:23.520Z,248.03
2022-10-31T06:04:50.709Z,169.03
2022-10-31T06:07:17.912Z,139.73
2022-10-31T06:09:45.010Z,185.63
2022-10-31T06:12:12.091Z,161.80
2022-10-31T06:14:39.187Z,167.53
2022-10-31T06:17:06.263Z,103.53
2022-10-31T06:19:33.327Z,137.70
2022-10-31T06:22:00.406Z,95.87
2022-10-31T06:24:27.513Z,118.67
2022-10-31T06:26:54.603Z,107.03
2022-10-31T06:29:21.698Z,106.07
2022-10-31T06:31:48.760Z,81.73
2022-10-31T06:34:15.831Z,78.73
2022-10-31T06:36:42.915Z,98.30
2022-10-31T06:39:10.056Z,63.23
2022-10-31T06:41:37.582Z,36.80
2022-10-31T06:44:08.041Z,63.80
2022-10-31T06:46:36.145Z,81.67
2022-10-31T06:49:03.246Z,108.90
2022-10-31T06:51:30.329Z,110.43
2022-10-31T06:53:57.383Z,58.93
2022-10-31T06:56:24.504Z,96.00
2022-10-31T06:58:51.605Z,63.20
2022-10-31T07:01:18.811Z,51.43
2022-10-31T07:03:45.974Z,44.23
2022-10-31T07:06:13.115Z,61.00
2022-10-31T07:08:40.185Z,73.80
2022-10-31T07:11:07.415Z,47.93
2022-10-31T07:13:34.512Z,57.53
2022-10-31T07:16:03.022Z,43.17
2022-10-31T07:18:30.153Z,58.93
2022-10-31T07:20:57.269Z,56.57
2022-10-31T07:23:24.379Z,38.17
2022-10-31T07:25:56.044Z,66.53
2022-10-31T07:28:23.154Z,51.30
2022-10-31T07:30:57.854Z,29.90
2022-10-31T07:33:28.957Z,102.00
2022-10-31T07:35:56.056Z,59.40
2022-10-31T07:38:23.195Z,41.97
2022-10-31T07:40:54.188Z,74.37
2022-10-31T07:43:21.493Z,92.73
2022-10-31T07:45:55.083Z,51.97
2022-10-31T07:48:22.129Z,36.33
2022-10-31T07:50:49.267Z,29.00
2022-10-31T07:53:16.802Z,39.03
2022-10-31T07:55:44.309Z,21.40
2022-10-31T07:58:13.040Z,28.40
2022-10-31T08:00:40.897Z,29.13
2022-10-31T08:03:09.776Z,29.17
2022-10-31T08:05:37.346Z,20.40
2022-10-31T08:08:07.303Z,28.33
2022-10-31T08:10:34.777Z,31.37
2022-10-31T08:13:14.631Z,22.20
2022-10-31T08:15:42.837Z,24.33
2022-10-31T08:18:16.334Z,35.97
2022-10-31T08:20:43.978Z,28.67
2022-10-31T08:23:11.691Z,26.80
2022-10-31T08:25:39.336Z,26.70
2022-10-31T08:28:07.103Z,27.90
2022-10-31T08:30:35.010Z,31.83
2022-10-31T08:33:05.171Z,21.53
2022-10-31T08:35:33.047Z,38.20
2022-10-31T08:38:00.580Z,44.07
2022-10-31T08:40:28.985Z,32.50
2022-10-31T08:42:59.194Z,24.23
2022-10-31T08:45:26.573Z,49.60
2022-10-31T08:47:53.803Z,53.33
2022-10-31T08:50:20.896Z,66.67
2022-10-31T08:53:04.077Z,41.43
2022-10-31T08:55:32.203Z,45.20
2022-10-31T08:58:00.193Z,72.97
2022-10-31T09:00:27.673Z,51.03
2022-10-31T09:03:02.180Z,88.93
2022-10-31T09:05:29.299Z,58.60
2022-10-31T09:08:00.504Z,66.50
2022-10-31T09:10:28.745Z,57.00
2022-10-31T09:12:59.384Z,77.93
2022-10-31T09:15:27.236Z,103.30
2022-10-31T09:17:54.349Z,99.63
2022-10-31T09:20:22.347Z,65.17
2022-10-31T09:22:49.573Z,66.53
2022-10-31T09:25:16.717Z,97.73
2022-10-31T09:27:43.774Z,64.17
2022-10-31T09:30:11.109Z,68.77
2022-10-31T09:32:38.273Z,49.10
2022-10-31T09:35:05.543Z,77.40
2022-10-31T09:37:32.636Z,90.90
2022-10-31T09:39:59.676Z,196.83
2022-10-31T09:42:41.994Z,78.07
2022-10-31T09:45:14.916Z,29.23
2022-10-31T09:47:44.719Z,47.60
2022-10-31T09:50:17.756Z,88.53
2022-10-31T09:52:49.797Z,89.87
2022-10-31T09:55:19.752Z,132.23
2022-10-31T09:57:47.621Z,36.37
2022-10-31T10:00:22.272Z,43.63
2022-10-31T10:02:53.265Z,79.57
2022-10-31T10:05:23.134Z,47.77
2022-10-31T10:08:10.735Z,63.97
2022-10-31T10:10:40.798Z,81.93
2022-10-31T10:13:20.858Z,25.47
2022-10-31T10:15:47.976Z,66.17
2022-10-31T10:18:15.049Z,31.47
2022-10-31T10:20:48.195Z,35.97
2022-10-31T10:23:30.496Z,48.93
2022-10-31T10:26:08.732Z,43.87
2022-10-31T10:28:40.858Z,50.00
2022-10-31T10:31:18.458Z,44.83
2022-10-31T10:34:09.715Z,32.67
2022-10-31T10:36:52.214Z,77.30
2022-10-31T10:39:22.190Z,61.97
2022-10-31T10:42:08.954Z,53.87
2022-10-31T10:44:58.864Z,56.33
2022-10-31T10:47:39.918Z,61.43
2022-10-31T10:50:19.351Z,48.20
2022-10-31T10:52:51.129Z,44.43
2022-10-31T10:55:27.046Z,60.97
2022-10-31T10:58:02.516Z,46.17
2022-10-31T11:00:43.500Z,66.43
2022-10-31T11:03:11.809Z,60.73
2022-10-31T11:05:55.579Z,59.67
2022-10-31T11:08:30.414Z,45.77
2022-10-31T11:10:58.640Z,29.83
2022-10-31T11:13:27.445Z,32.77
2022-10-31T11:16:02.498Z,39.90
2022-10-31T11:18:32.135Z,39.63
2022-10-31T11:21:00.621Z,33.77
2022-10-31T11:23:28.980Z,51.40
2022-10-31T11:26:06.410Z,51.03
2022-10-31T11:28:37.549Z,24.77
2022-10-31T11:31:09.681Z,57.83
2022-10-31T11:33:38.326Z,41.03
2022-10-31T11:36:15.844Z,29.27
2022-10-31T11:38:44.924Z,37.47
2022-10-31T11:41:11.975Z,38.40
2022-10-31T11:43:39.470Z,39.20
2022-10-31T11:46:13.351Z,47.17
2022-10-31T11:48:40.445Z,30.87
2022-10-31T11:51:07.936Z,27.40
2022-10-31T11:53:36.025Z,50.60
2022-10-31T11:56:05.866Z,47.00
2022-10-31T11:58:32.964Z,26.90
2022-10-31T12:01:00.115Z,34.70
2022-10-31T12:03:45.471Z,36.77
2022-10-31T12:06:19.333Z,27.60
2022-10-31T12:08:47.394Z,39.50
2022-10-31T12:11:14.446Z,34.57
2022-10-31T12:13:50.098Z,45.67
2022-10-31T12:16:35.673Z,57.53
2022-10-31T12:19:06.531Z,29.37
2022-10-31T12:21:39.722Z,25.83
2022-10-31T12:24:06.809Z,30.00
2022-10-31T12:26:33.892Z,29.30
2022-10-31T12:29:19.536Z,30.20
2022-10-31T12:31:52.707Z,29.50
2022-10-31T12:34:47.743Z,28.80
2022-10-31T12:37:29.508Z,37.63
2022-10-31T12:40:14.467Z,34.67
2022-10-31T12:42:49.352Z,27.80
2022-10-31T12:45:26.422Z,41.83
2022-10-31T12:48:19.923Z,33.10
2022-10-31T12:51:10.385Z,38.13
2022-10-31T12:53:50.921Z,35.70
2022-10-31T12:56:21.132Z,27.23
2022-10-31T12:59:11.401Z,46.27
2022-10-31T13:01:47.244Z,36.83
2022-10-31T13:04:20.145Z,33.73
2022-10-31T13:06:51.700Z,33.30
2022-10-31T13:09:25.339Z,36.13
2022-10-31T13:11:58.277Z,60.43
2022-10-31T13:14:28.079Z,43.47
2022-10-31T13:16:56.677Z,37.43
2022-10-31T13:19:25.916Z,54.33
2022-10-31T13:22:06.385Z,35.83
2022-10-31T13:24:46.542Z,39.97
2022-10-31T13:27:28.474Z,33.37
2022-10-31T13:30:03.093Z,38.87
2022-10-31T13:32:32.948Z,39.80
2022-10-31T13:35:00.616Z,36.90
2022-10-31T13:37:40.981Z,34.43
2022-10-31T13:40:15.898Z,36.13
2022-10-31T13:43:03.579Z,33.03
2022-10-31T13:45:30.988Z,33.13
2022-10-31T13:47:59.985Z,36.03
2022-10-31T13:50:29.532Z,51.63
2022-10-31T13:53:25.828Z,38.10
2022-10-31T13:56:05.045Z,34.63
2022-10-31T13:58:32.787Z,37.40
2022-10-31T14:01:20.211Z,42.27
2022-10-31T14:04:06.136Z,32.90
2022-10-31T14:06:39.393Z,35.40
2022-10-31T14:09:06.665Z,33.67
2022-10-31T14:11:36.332Z,32.00
2022-10-31T14:14:04.678Z,35.20
2022-10-31T14:16:33.041Z,38.07
2022-10-31T14:19:00.123Z,37.00
2022-10-31T14:21:27.189Z,36.63
2022-10-31T14:23:55.333Z,32.53
2022-10-31T14:26:29.428Z,34.47
2022-10-31T14:28:57.787Z,33.27
2022-10-31T14:31:38.853Z,32.27
2022-10-31T14:34:24.699Z,38.50
2022-10-31T14:37:05.531Z,36.03
2022-10-31T14:39:51.955Z,34.97
2022-10-31T14:42:28.478Z,35.47
2022-10-31T14:44:55.564Z,34.40
2022-10-31T14:47:34.941Z,38.23
2022-10-31T14:50:25.046Z,35.93
2022-10-31T14:52:53.935Z,36.03
2022-10-31T14:55:22.260Z,36.73
2022-10-31T14:58:01.346Z,35.93
2022-10-31T15:00:29.436Z,39.13
2022-10-31T15:03:14.971Z,44.37
2022-10-31T15:05:51.511Z,37.67
2022-10-31T15:08:39.938Z,50.00
2022-10-31T15:11:17.362Z,43.47
2022-10-31T15:13:57.860Z,50.37
2022-10-31T15:19:05.637Z,71.93
2022-10-31T15:21:32.991Z,70.90
2022-10-31T15:24:01.094Z,65.53
2022-10-31T15:26:33.024Z,73.27
2022-10-31T15:29:04.713Z,77.27
2022-10-31T15:31:32.119Z,69.87
2022-10-31T15:34:01.954Z,95.77
2022-10-31T15:36:30.627Z,95.53
2022-10-31T15:39:00.451Z,87.60
2022-10-31T15:41:50.311Z,190.73
2022-10-31T15:44:23.469Z,109.83
2022-10-31T15:46:54.452Z,180.27
2022-10-31T15:49:42.048Z,100.90
2022-10-31T15:52:09.330Z,79.33
2022-10-31T15:54:37.474Z,205.87
2022-10-31T15:57:05.500Z,214.07
2022-10-31T15:59:32.929Z,103.77
2022-10-31T16:02:02.790Z,161.17
2022-10-31T16:04:30.616Z,144.17
2022-10-31T16:07:00.551Z,137.73
2022-10-31T16:09:27.641Z,179.27
2022-10-31T16:11:56.682Z,151.07
2022-10-31T16:14:29.051Z,212.73
2022-10-31T16:17:00.286Z,718.20
2022-10-31T16:19:29.508Z,817.93
2022-10-31T16:22:16.839Z,239.83
2022-10-31T16:24:48.072Z,63.00
2022-10-31T16:27:29.531Z,557.27
2022-10-31T16:29:57.870Z,699.63
2022-10-31T16:32:38.336Z,599.50
2022-10-31T16:35:11.316Z,93.67
2022-10-31T16:37:41.985Z,77.43
2022-10-31T16:40:10.624Z,84.27
2022-10-31T16:42:37.698Z,121.07
2022-10-31T16:45:06.505Z,374.43
2022-10-31T16:47:33.609Z,158.77
2022-10-31T16:50:01.233Z,132.60
2022-10-31T16:52:37.958Z,147.43
2022-10-31T16:55:12.594Z,160.77
2022-10-31T16:57:39.789Z,146.80
2022-10-31T17:00:07.123Z,128.73
2022-10-31T17:02:34.465Z,225.03
2022-10-31T17:05:01.541Z,248.23
2022-10-31T17:07:28.594Z,332.07
2022-10-31T17:09:55.644Z,430.53
2022-10-31T17:12:24.623Z,421.57
2022-10-31T17:14:52.242Z,296.97
2022-10-31T17:17:19.298Z,138.40
2022-10-31T17:19:46.391Z,103.73
2022-10-31T17:22:14.686Z,156.93
2022-10-31T17:24:41.949Z,127.03
2022-10-31T17:27:09.011Z,122.23
2022-10-31T17:29:36.224Z,121.00
2022-10-31T17:32:04.220Z,221.20
2022-10-31T17:34:31.722Z,149.83
2022-10-31T17:36:58.844Z,102.30
2022-10-31T17:39:26.087Z,114.63
2022-10-31T17:41:53.413Z,204.83
2022-10-31T17:44:20.536Z,248.17
2022-10-31T17:46:47.636Z,179.60
2022-10-31T17:49:14.822Z,176.40
2022-10-31T17:51:41.899Z,215.13
2022-10-31T17:54:10.140Z,208.90
2022-10-31T17:56:37.240Z,240.07
2022-10-31T18:01:36.475Z,424.30
2022-10-31T18:04:03.640Z,131.30
2022-10-31T18:06:30.709Z,167.13
2022-10-31T18:08:58.218Z,163.93
2022-10-31T18:11:25.386Z,128.53
2022-10-31T18:13:56.771Z,116.30
2022-10-31T18:16:24.158Z,118.30
2022-10-31T18:18:52.771Z,238.73
2022-10-31T18:21:20.184Z,308.63
2022-10-31T18:23:47.906Z,266.47
2022-10-31T18:26:15.060Z,168.50
2022-10-31T18:28:42.171Z,233.57
2022-10-31T18:31:09.344Z,242.90
2022-10-31T18:33:37.844Z,303.40
2022-10-31T18:36:06.085Z,324.07
2022-10-31T18:38:33.580Z,351.50
2022-10-31T18:41:00.706Z,273.13
2022-10-31T18:43:27.803Z,568.30
2022-10-31T18:45:57.987Z,418.90
2022-10-31T18:48:28.187Z,244.80
2022-10-31T18:50:57.998Z,279.27
2022-10-31T18:53:25.452Z,319.90
2022-10-31T18:55:52.582Z,317.70
2022-10-31T18:58:19.665Z,426.07
2022-10-31T19:00:47.085Z,443.90
2022-10-31T19:03:14.963Z,362.87
2022-10-31T19:05:42.070Z,456.57
2022-10-31T19:08:09.225Z,491.17
2022-10-31T19:10:36.913Z,434.43
2022-10-31T19:13:04.568Z,366.67
2022-10-31T19:15:32.126Z,260.13
2022-10-31T19:18:00.319Z,434.10
2022-10-31T19:20:27.464Z,307.47
2022-10-31T19:22:54.631Z,352.43
2022-10-31T19:25:21.711Z,407.40
2022-10-31T19:27:48.775Z,361.30
2022-10-31T19:30:15.843Z,436.17
2022-10-31T19:32:42.939Z,444.43
2022-10-31T19:35:11.404Z,527.97
